Time;durP1;ratioP1;P1;durP2;ratioP2;P2;SDS_P1;SDS_P2;PMS_P1;PMS_P2;Temp;Humidity;BMP_temperature;BMP_pressure;BME280_temperature;BME280_humidity;BME280_pressure;Samples;Min_cycle;Max_cycle;Signal;HPM_P1;HPM_P2
2022/01/25 00:33:30;;;;;;;93.45;49.63;;;141.40;2176.00;;;;;;5033881;28;20083;-70
2022/01/25 00:35:57;;;;;;;97.35;52.17;;;141.40;2176.00;;;;;;5033518;28;20043;-70
2022/01/25 00:38:23;;;;;;;89.28;40.30;;;141.40;2176.00;;;;;;5033610;28;20515;-70
2022/01/25 00:40:49;;;;;;;98.00;45.78;;;141.40;2176.00;;;;;;5031215;28;20034;-70
2022/01/25 00:43:15;;;;;;;90.05;45.70;;;141.40;2176.00;;;;;;5052431;28;20037;-70
2022/01/25 00:45:41;;;;;;;86.93;43.35;;;141.50;2176.00;;;;;;5032879;28;20033;-69
2022/01/25 00:48:09;;;;;;;89.57;44.78;;;141.60;2176.00;;;;;;5034324;28;20025;-69
2022/01/25 00:50:41;;;;;;;102.10;49.15;;;141.50;2176.00;;;;;;5034527;28;20022;-70
2022/01/25 00:55:33;;;;;;;108.75;49.35;;;141.40;2176.00;;;;;;5040219;28;20021;-70
2022/01/25 00:58:00;;;;;;;99.68;44.70;;;141.40;2176.00;;;;;;5027015;28;20076;-70
2022/01/25 01:00:27;;;;;;;94.05;46.75;;;141.40;2176.00;;;;;;5033233;28;20512;-70
2022/01/25 01:02:54;;;;;;;93.95;46.67;;;141.50;2176.00;;;;;;5032407;28;20492;-70
2022/01/25 01:05:21;;;;;;;105.95;50.22;;;141.40;2176.00;;;;;;5031835;28;20512;-70
2022/01/25 01:07:47;;;;;;;102.88;48.72;;;141.40;2176.00;;;;;;5032658;28;20072;-70
2022/01/25 01:10:18;;;;;;;105.18;47.75;;;141.30;2176.00;;;;;;5033757;28;20026;-69
2022/01/25 01:15:40;;;;;;;98.32;52.85;;;141.60;2176.00;;;;;;5034072;28;20031;-69
2022/01/25 01:37:02;;;;;;;120.05;59.33;;;166.50;2176.00;;;;;;5034087;28;20168;-70
2022/01/25 01:45:10;;;;;;;126.32;57.05;;;166.60;2176.00;;;;;;5033406;28;20048;-70
2022/01/25 01:47:47;;;;;;;125.93;57.40;;;166.60;2176.00;;;;;;5033351;28;20116;-70
2022/01/25 01:50:25;;;;;;;114.72;53.42;;;166.70;2176.00;;;;;;5033021;28;20496;-70
2022/01/25 01:52:52;;;;;;;103.70;50.97;;;166.70;2176.00;;;;;;5032031;28;20025;-70
2022/01/25 01:55:17;;;;;;;115.90;51.50;;;166.50;2176.00;;;;;;5032753;28;20029;-70
2022/01/25 01:57:43;;;;;;;108.22;52.25;;;166.40;2176.00;;;;;;5032960;28;20021;-70
2022/01/25 02:00:10;;;;;;;95.40;49.25;;;166.40;2176.00;;;;;;5031590;28;20041;-70
2022/01/25 02:02:35;;;;;;;98.57;45.78;;;166.40;2176.00;;;;;;5033197;28;20515;-70
2022/01/25 02:05:01;;;;;;;102.78;49.83;;;166.40;2176.00;;;;;;5031437;28;20037;-69
2022/01/25 02:07:27;;;;;;;96.00;48.83;;;166.40;2176.00;;;;;;5032689;28;20045;-70
2022/01/25 02:09:53;;;;;;;97.75;48.70;;;141.70;2176.00;;;;;;5030922;28;20032;-70
2022/01/25 02:12:18;;;;;;;91.43;45.05;;;141.60;2176.00;;;;;;5032785;28;20053;-70
2022/01/25 02:14:44;;;;;;;96.88;47.03;;;141.60;2176.00;;;;;;5031752;28;20071;-70
2022/01/25 02:17:26;;;;;;;90.20;45.13;;;141.60;2176.00;;;;;;5033047;28;20031;-70
2022/01/25 02:23:21;;;;;;;90.15;44.65;;;141.60;2176.00;;;;;;5030673;28;20061;-69
2022/01/25 02:25:48;;;;;;;82.50;41.83;;;141.50;2176.00;;;;;;5029205;28;20040;-70
2022/01/25 02:28:15;;;;;;;97.45;47.72;;;141.50;2176.00;;;;;;5029746;28;20033;-70
2022/01/25 02:30:41;;;;;;;94.13;44.78;;;141.60;2176.00;;;;;;5029905;28;20037;-70
2022/01/25 02:33:07;;;;;;;101.82;48.20;;;141.60;2176.00;;;;;;5030343;28;20025;-70
2022/01/25 02:35:33;;;;;;;88.88;43.08;;;141.60;2176.00;;;;;;5030405;28;20044;-71
2022/01/25 02:37:59;;;;;;;92.80;42.40;;;141.60;2176.00;;;;;;5029795;28;20574;-71
2022/01/25 02:40:25;;;;;;;97.38;46.40;;;141.60;2176.00;;;;;;5013185;28;20439;-70
2022/01/25 02:42:52;;;;;;;91.35;42.65;;;141.50;2176.00;;;;;;5040433;28;20025;-70
2022/01/25 02:45:18;;;;;;;95.20;44.90;;;141.50;2176.00;;;;;;5012545;28;20520;-70
2022/01/25 02:50:29;;;;;;;93.38;44.13;;;141.60;2176.00;;;;;;5030259;28;20064;-70
2022/01/25 02:52:55;;;;;;;79.50;41.15;;;141.60;2176.00;;;;;;5029912;28;20025;-70
2022/01/25 02:55:22;;;;;;;96.53;44.65;;;141.60;2176.00;;;;;;5030233;28;20026;-71
2022/01/25 02:57:48;;;;;;;92.03;44.65;;;141.60;2176.00;;;;;;5031664;28;20107;-71
2022/01/25 03:00:15;;;;;;;86.00;43.30;;;141.50;2176.00;;;;;;5031941;28;20476;-71
2022/01/25 03:02:40;;;;;;;74.38;40.78;;;141.50;2176.00;;;;;;5032364;28;20389;-71
2022/01/25 03:05:07;;;;;;;83.45;43.10;;;141.40;2176.00;;;;;;5032325;28;20036;-71
2022/01/25 03:07:34;;;;;;;81.25;42.67;;;141.40;2176.00;;;;;;5032239;28;20077;-71
2022/01/25 03:10:01;;;;;;;83.18;40.45;;;141.40;2176.00;;;;;;5030886;28;20084;-71
2022/01/25 03:12:43;;;;;;;89.32;42.78;;;141.30;2176.00;;;;;;5030697;28;20017;-71
2022/01/25 03:17:50;;;;;;;84.60;42.50;;;141.50;2176.00;;;;;;5032484;28;20120;-72
2022/01/25 03:20:22;;;;;;;84.43;40.22;;;141.60;2176.00;;;;;;5030981;28;20029;-71
2022/01/25 03:25:24;;;;;;;85.43;41.28;;;141.60;2176.00;;;;;;5032190;28;20032;-69
2022/01/25 03:27:50;;;;;;;88.60;42.97;;;141.60;2176.00;;;;;;5030543;28;20491;-69
2022/01/25 03:30:15;;;;;;;94.13;44.38;;;141.50;2176.00;;;;;;5047281;28;20021;-71
2022/01/25 03:32:41;;;;;;;84.95;44.65;;;141.40;2176.00;;;;;;5031541;28;20071;-70
2022/01/25 03:35:07;;;;;;;88.80;44.58;;;141.40;2176.00;;;;;;5032032;28;20163;-71
2022/01/25 03:37:33;;;;;;;92.78;44.05;;;141.50;2176.00;;;;;;5064081;28;20124;-71
2022/01/25 03:39:59;;;;;;;90.82;48.00;;;141.50;2176.00;;;;;;5031478;28;20097;-69
2022/01/25 03:42:25;;;;;;;93.85;47.22;;;141.50;2176.00;;;;;;5031453;28;20029;-69
2022/01/25 03:44:51;;;;;;;84.05;45.47;;;141.40;2176.00;;;;;;5031436;28;20657;-71
2022/01/25 03:47:21;;;;;;;92.65;45.58;;;141.40;2176.00;;;;;;5030484;28;20030;-70
2022/01/25 03:49:49;;;;;;;92.93;43.83;;;141.40;2176.00;;;;;;5022912;28;20026;-71
2022/01/25 03:52:34;;;;;;;93.18;46.28;;;141.30;2176.00;;;;;;5023908;28;20723;-70
2022/01/25 03:55:00;;;;;;;92.78;46.75;;;141.40;2176.00;;;;;;5031606;28;20388;-70
2022/01/25 03:57:26;;;;;;;96.53;47.67;;;141.30;2176.00;;;;;;5031739;28;20025;-70
2022/01/25 03:59:53;;;;;;;95.25;47.40;;;141.30;2176.00;;;;;;5031928;28;20029;-70
2022/01/25 04:02:19;;;;;;;96.68;47.00;;;141.30;2176.00;;;;;;5030155;28;20049;-70
2022/01/25 04:04:46;;;;;;;94.47;49.35;;;141.40;2176.00;;;;;;5031286;28;20389;-70
2022/01/25 04:07:14;;;;;;;87.88;45.35;;;141.40;2176.00;;;;;;5031271;28;20118;-72
2022/01/25 04:09:40;;;;;;;92.65;43.92;;;141.40;2176.00;;;;;;5030770;28;20041;-71
2022/01/25 04:12:07;;;;;;;91.40;45.97;;;141.40;2176.00;;;;;;5063659;28;20029;-70
2022/01/25 04:14:33;;;;;;;94.55;47.10;;;141.40;2176.00;;;;;;5030929;28;20034;-70
2022/01/25 04:17:10;;;;;;;88.32;43.10;;;141.40;2176.00;;;;;;5034022;28;20388;-70
2022/01/25 04:19:41;;;;;;;82.60;42.25;;;141.50;2176.00;;;;;;5033909;28;20030;-72
2022/01/25 04:27:23;;;;;;;75.85;37.67;;;141.50;2176.00;;;;;;5035167;28;20155;-70
2022/01/25 04:29:49;;;;;;;84.75;39.55;;;141.50;2176.00;;;;;;5035007;28;20026;-70
2022/01/25 04:32:15;;;;;;;72.50;38.67;;;141.50;2176.00;;;;;;5033389;28;20036;-71
2022/01/25 04:34:57;;;;;;;72.97;35.80;;;141.50;2176.00;;;;;;5033696;28;20025;-72
2022/01/25 04:51:23;;;;;;;75.95;36.83;;;141.40;2176.00;;;;;;5012383;28;20038;-70
2022/01/25 04:54:16;;;;;;;71.05;35.08;;;141.40;2176.00;;;;;;5012476;28;20026;-70
2022/01/25 05:01:34;;;;;;;67.47;36.42;;;141.30;2176.00;;;;;;5011916;28;20748;-70
2022/01/25 05:04:08;;;;;;;65.97;36.78;;;141.30;2176.00;;;;;;5012440;28;20121;-71
2022/01/25 05:06:34;;;;;;;70.97;35.70;;;141.40;2176.00;;;;;;5012062;28;20076;-70
2022/01/25 05:09:12;;;;;;;76.32;36.42;;;141.40;2176.00;;;;;;4995804;28;20038;-70
2022/01/25 05:11:43;;;;;;;85.97;41.33;;;141.40;2176.00;;;;;;5012121;28;20479;-70
2022/01/25 05:14:16;;;;;;;76.10;40.83;;;141.40;2176.00;;;;;;5012209;28;20033;-71
2022/01/25 05:16:58;;;;;;;100.80;46.58;;;141.50;2176.00;;;;;;4995916;28;20105;-71
2022/01/25 05:22:28;;;;;;;83.30;39.55;;;141.50;2176.00;;;;;;4972625;28;20125;-71
2022/01/25 05:24:55;;;;;;;73.10;38.58;;;141.50;2176.00;;;;;;4971604;28;20430;-71
2022/01/25 05:27:27;;;;;;;81.65;40.05;;;141.40;2176.00;;;;;;4975788;28;20042;-71
2022/01/25 05:29:53;;;;;;;79.22;42.30;;;141.40;2176.00;;;;;;4991863;28;20525;-69
2022/01/25 05:32:19;;;;;;;84.57;42.22;;;141.40;2176.00;;;;;;4991535;28;20026;-69
2022/01/25 05:34:45;;;;;;;92.00;44.40;;;141.40;2176.00;;;;;;4975204;28;20444;-69
2022/01/25 05:37:11;;;;;;;100.20;47.05;;;141.40;2176.00;;;;;;4974852;28;20030;-69
2022/01/25 05:39:37;;;;;;;121.40;54.72;;;141.40;2176.00;;;;;;4991336;28;20109;-69
2022/01/25 05:42:26;;;;;;;94.80;46.63;;;141.40;2176.00;;;;;;4990228;28;20030;-69
2022/01/25 05:47:18;;;;;;;103.57;49.17;;;141.30;2176.00;;;;;;4971857;28;20514;-70
2022/01/25 05:49:45;;;;;;;108.75;51.83;;;141.30;2176.00;;;;;;4955736;28;20078;-70
2022/01/25 05:52:11;;;;;;;120.57;54.47;;;141.40;2176.00;;;;;;4988466;28;20113;-69
2022/01/25 05:54:38;;;;;;;122.80;57.72;;;141.40;2176.00;;;;;;4991290;28;20097;-69
2022/01/25 05:57:05;;;;;;;120.72;57.40;;;141.50;2176.00;;;;;;4988063;28;20385;-69
2022/01/25 05:59:31;;;;;;;166.80;78.90;;;141.60;2176.00;;;;;;5016391;28;20056;-70
2022/01/25 06:01:56;;;;;;;166.30;73.10;;;141.60;2176.00;;;;;;5024195;28;20461;-70
2022/01/25 06:04:23;;;;;;;147.60;72.18;;;141.70;2176.00;;;;;;5029779;28;20504;-69
2022/01/25 06:06:49;;;;;;;142.93;70.18;;;141.70;2176.00;;;;;;5032192;28;20036;-70
2022/01/25 06:09:15;;;;;;;157.25;63.78;;;166.40;2176.00;;;;;;5030030;28;20452;-69
2022/01/25 06:11:41;;;;;;;152.85;71.07;;;141.70;2176.00;;;;;;5020926;28;20018;-70
2022/01/25 06:14:07;;;;;;;152.48;71.65;;;141.70;2176.00;;;;;;5032316;28;20025;-70
2022/01/25 06:16:33;;;;;;;196.57;90.55;;;141.70;2176.00;;;;;;5031508;28;20052;-70
2022/01/25 06:18:59;;;;;;;160.77;72.72;;;166.40;2176.00;;;;;;5019455;28;20098;-69
2022/01/25 06:21:25;;;;;;;135.27;69.90;;;166.40;2176.00;;;;;;5062615;28;20038;-70
2022/01/25 06:23:51;;;;;;;143.95;72.85;;;166.50;2176.00;;;;;;5059206;28;20022;-70
2022/01/25 06:26:17;;;;;;;145.35;73.13;;;166.50;2176.00;;;;;;5031199;28;20026;-70
2022/01/25 06:28:43;;;;;;;146.77;74.70;;;166.50;2176.00;;;;;;5032341;28;20041;-71
2022/01/25 06:31:09;;;;;;;147.57;77.57;;;166.50;2176.00;;;;;;5031577;28;20029;-70
2022/01/25 06:33:37;;;;;;;155.55;81.78;;;166.50;2176.00;;;;;;5029364;28;20044;-70
2022/01/25 06:36:03;;;;;;;144.43;78.28;;;166.60;2176.00;;;;;;5055790;28;20021;-70
2022/01/25 06:38:30;;;;;;;171.80;91.32;;;166.50;2176.00;;;;;;5031806;28;20033;-69
2022/01/25 06:40:56;;;;;;;186.95;93.10;;;166.50;2176.00;;;;;;5030751;28;20029;-70
2022/01/25 06:43:21;;;;;;;177.30;93.78;;;166.50;2176.00;;;;;;5014288;28;20084;-70
2022/01/25 06:45:55;;;;;;;208.38;107.30;;;166.50;2176.00;;;;;;5010991;28;20036;-70
2022/01/25 06:48:21;;;;;;;186.32;96.80;;;166.50;2176.00;;;;;;5012229;28;20075;-69
2022/01/25 06:50:47;;;;;;;148.80;81.45;;;166.40;2176.00;;;;;;5018012;28;20100;-69
2022/01/25 06:53:13;;;;;;;119.63;65.93;;;166.50;2176.00;;;;;;5031815;28;20096;-68
2022/01/25 06:55:40;;;;;;;119.30;58.20;;;166.40;2176.00;;;;;;5031928;28;20021;-70
2022/01/25 06:58:06;;;;;;;110.13;56.08;;;141.70;2176.00;;;;;;5030771;28;20025;-70
2022/01/25 07:00:32;;;;;;;117.57;55.15;;;166.40;2176.00;;;;;;5031777;28;20052;-69
2022/01/25 07:02:58;;;;;;;120.20;60.67;;;166.40;2176.00;;;;;;5027871;28;20033;-70
2022/01/25 07:05:23;;;;;;;128.40;59.50;;;141.70;2176.00;;;;;;5031453;28;20029;-70
2022/01/25 07:07:50;;;;;;;129.07;62.85;;;141.70;2176.00;;;;;;5030950;28;20107;-70
2022/01/25 07:10:17;;;;;;;127.40;62.20;;;141.60;2176.00;;;;;;5028867;28;20045;-70
2022/01/25 07:12:43;;;;;;;137.80;60.65;;;141.50;2176.00;;;;;;5028679;28;20420;-70
2022/01/25 07:15:10;;;;;;;120.65;56.78;;;141.40;2176.00;;;;;;5031667;28;20954;-70
2022/01/25 07:17:36;;;;;;;123.95;58.75;;;141.40;2176.00;;;;;;5029937;28;20033;-70
2022/01/25 07:20:04;;;;;;;114.70;55.55;;;141.30;2176.00;;;;;;5029895;28;20037;-70
2022/01/25 07:22:29;;;;;;;136.98;60.45;;;141.20;2176.00;;;;;;5030940;28;20149;-70
2022/01/25 07:24:55;;;;;;;111.47;53.97;;;141.20;2176.00;;;;;;5031557;28;20108;-70
2022/01/25 07:27:21;;;;;;;111.40;56.72;;;141.10;2176.00;;;;;;5031568;28;20439;-70
2022/01/25 07:29:46;;;;;;;113.68;50.63;;;141.10;2176.00;;;;;;5031388;28;20071;-70
2022/01/25 07:32:12;;;;;;;98.50;47.65;;;141.00;2176.00;;;;;;5027402;28;20499;-71
2022/01/25 07:34:38;;;;;;;99.72;51.05;;;140.90;2176.00;;;;;;5031432;28;20045;-70
2022/01/25 07:37:04;;;;;;;98.35;52.20;;;140.80;2176.00;;;;;;5028347;28;20034;-72
2022/01/25 07:39:30;;;;;;;108.88;52.75;;;140.80;2176.00;;;;;;5029098;28;20036;-70
2022/01/25 07:41:58;;;;;;;102.20;50.55;;;116.00;2176.00;;;;;;5028937;28;20041;-71
2022/01/25 07:44:28;;;;;;;102.93;50.95;;;115.80;2176.00;;;;;;5028669;28;20071;-72
2022/01/25 07:46:57;;;;;;;103.60;51.38;;;115.80;2176.00;;;;;;5026885;28;20083;-72
2022/01/25 07:49:24;;;;;;;91.85;50.47;;;115.70;2176.00;;;;;;5029763;28;20029;-71
2022/01/25 07:51:51;;;;;;;88.80;47.17;;;115.50;2176.00;;;;;;5034413;28;20033;-72
2022/01/25 07:54:16;;;;;;;85.40;45.78;;;115.50;2176.00;;;;;;5035076;28;20057;-69
2022/01/25 07:56:42;;;;;;;88.65;47.10;;;115.30;2176.00;;;;;;5035046;28;20546;-71
2022/01/25 07:59:08;;;;;;;87.85;47.45;;;115.20;2176.00;;;;;;5031999;28;20469;-70
2022/01/25 08:01:34;;;;;;;86.43;44.50;;;90.50;2176.00;;;;;;5034398;28;20041;-70
2022/01/25 08:04:00;;;;;;;68.38;36.67;;;90.50;2176.00;;;;;;5033467;28;20029;-70
2022/01/25 08:06:25;;;;;;;79.32;36.65;;;90.30;2176.00;;;;;;5034682;28;20037;-70
2022/01/25 08:08:52;;;;;;;65.72;35.92;;;90.20;2176.00;;;;;;5034473;28;20042;-70
2022/01/25 08:11:19;;;;;;;68.35;34.65;;;90.10;2176.00;;;;;;5034647;28;20045;-71
2022/01/25 08:13:49;;;;;;;76.82;36.47;;;89.90;2176.00;;;;;;5032609;28;20076;-70
2022/01/25 08:16:16;;;;;;;74.45;38.95;;;89.80;2176.00;;;;;;5050451;28;20444;-71
2022/01/25 08:18:42;;;;;;;62.97;33.92;;;89.60;2201.60;;;;;;5033777;28;20506;-71
2022/01/25 08:21:08;;;;;;;65.47;32.95;;;64.90;2201.60;;;;;;5033598;28;20507;-71
2022/01/25 08:23:34;;;;;;;63.35;33.10;;;64.80;2201.60;;;;;;5031552;28;20029;-71
2022/01/25 08:26:00;;;;;;;57.08;31.17;;;64.80;2201.60;;;;;;5032506;28;20032;-70
2022/01/25 08:28:26;;;;;;;71.40;29.38;;;64.70;2201.60;;;;;;5032244;28;20029;-70
2022/01/25 08:30:52;;;;;;;51.72;30.88;;;64.50;2201.60;;;;;;5031307;28;20083;-70
2022/01/25 08:33:18;;;;;;;49.08;28.73;;;64.60;2201.60;;;;;;5029993;28;20099;-73
2022/01/25 08:35:43;;;;;;;57.17;31.88;;;64.80;2201.60;;;;;;5030165;28;20079;-71
2022/01/25 08:38:09;;;;;;;60.45;33.45;;;64.60;2201.60;;;;;;5030230;28;20056;-73
2022/01/25 08:40:35;;;;;;;52.17;30.30;;;64.50;2201.60;;;;;;5024626;28;20365;-71
2022/01/25 08:43:02;;;;;;;57.97;32.70;;;64.30;2201.60;;;;;;5029739;28;20029;-72
2022/01/25 08:45:28;;;;;;;57.40;32.47;;;64.30;2201.60;;;;;;5032261;28;20809;-71
2022/01/25 08:47:54;;;;;;;59.42;32.85;;;64.10;2201.60;;;;;;5033225;28;20477;-71
2022/01/25 08:50:19;;;;;;;65.68;32.55;;;64.00;2201.60;;;;;;5032768;28;20021;-70
2022/01/25 08:52:45;;;;;;;64.65;35.92;;;39.10;2201.60;;;;;;5033042;28;20080;-71
2022/01/25 08:55:12;;;;;;;63.03;33.65;;;39.00;2201.60;;;;;;5031017;28;20022;-71
2022/01/25 08:57:37;;;;;;;61.60;34.00;;;38.80;2201.60;;;;;;5031235;28;20483;-71
2022/01/25 09:00:11;;;;;;;55.80;32.08;;;38.80;2201.60;;;;;;5032195;28;20030;-71
2022/01/25 09:02:39;;;;;;;63.47;33.67;;;38.60;2201.60;;;;;;5030163;28;20022;-71
2022/01/25 09:05:06;;;;;;;65.90;36.17;;;38.50;2201.60;;;;;;5032359;28;20026;-71
2022/01/25 09:07:31;;;;;;;71.97;37.42;;;38.50;2201.60;;;;;;5031337;28;20060;-72
2022/01/25 09:09:57;;;;;;;65.32;35.08;;;13.70;2201.60;;;;;;5032084;28;20124;-71
2022/01/25 09:12:23;;;;;;;65.43;32.65;;;13.70;2201.60;;;;;;5032697;28;20022;-71
2022/01/25 09:14:49;;;;;;;65.95;33.80;;;13.50;2201.60;;;;;;5032736;28;20029;-71
2022/01/25 09:17:15;;;;;;;69.30;37.92;;;13.40;2201.60;;;;;;5030561;28;20057;-71
2022/01/25 09:19:41;;;;;;;75.65;37.30;;;13.30;2201.60;;;;;;5033334;28;20495;-72
2022/01/25 09:22:08;;;;;;;81.80;41.33;;;13.30;2201.60;;;;;;5031873;28;20061;-71
2022/01/25 09:24:34;;;;;;;56.30;32.67;;;13.10;2201.60;;;;;;5033318;28;20416;-71
2022/01/25 09:27:02;;;;;;;54.38;32.03;;;0.00;2201.60;;;;;;5033178;28;20026;-70
2022/01/25 09:29:28;;;;;;;62.15;34.50;;;12.90;2201.60;;;;;;5031493;28;20028;-71
2022/01/25 09:31:54;;;;;;;51.20;32.90;;;0.30;2201.60;;;;;;5033671;28;20540;-71
2022/01/25 09:34:23;;;;;;;64.78;35.75;;;0.10;2201.60;;;;;;5033277;28;20108;-70
2022/01/25 09:36:50;;;;;;;61.45;35.80;;;0.30;2201.60;;;;;;5031464;28;20025;-71
2022/01/25 09:39:16;;;;;;;60.30;35.95;;;0.50;2201.60;;;;;;5020214;28;20054;-69
2022/01/25 09:41:42;;;;;;;65.65;35.17;;;0.40;2201.60;;;;;;5032509;28;20362;-71
2022/01/25 09:44:08;;;;;;;63.03;33.67;;;0.90;2201.60;;;;;;5033484;28;20125;-72
2022/01/25 09:46:33;;;;;;;64.93;35.92;;;0.40;2201.60;;;;;;5033607;28;20489;-71
2022/01/25 09:48:59;;;;;;;61.63;36.22;;;0.70;2201.60;;;;;;5033245;28;20404;-71
2022/01/25 09:51:25;;;;;;;60.45;33.55;;;0.70;2201.60;;;;;;5033281;28;20036;-73
2022/01/25 09:53:51;;;;;;;51.38;31.27;;;0.80;2201.60;;;;;;5029338;28;20535;-71
2022/01/25 09:56:17;;;;;;;49.00;28.33;;;0.90;2201.60;;;;;;5020797;28;20026;-72
2022/01/25 09:58:44;;;;;;;47.85;29.33;;;0.50;2201.60;;;;;;5028533;28;20488;-71
2022/01/25 10:01:11;;;;;;;47.22;28.55;;;0.50;2201.60;;;;;;5027498;28;20183;-71
2022/01/25 10:03:39;;;;;;;42.78;27.25;;;0.60;2201.60;;;;;;5032362;28;20108;-71
2022/01/25 10:06:16;;;;;;;51.10;27.98;;;0.60;2201.60;;;;;;5031897;28;20080;-72
2022/01/25 10:08:42;;;;;;;50.85;29.83;;;0.70;2201.60;;;;;;5029448;28;20065;-71
2022/01/25 10:11:14;;;;;;;49.67;27.55;;;0.70;2201.60;;;;;;5031611;28;20524;-70
2022/01/25 10:13:48;;;;;;;52.47;28.98;;;0.70;2201.60;;;;;;5025450;28;20053;-71
2022/01/25 10:16:17;;;;;;;63.05;31.27;;;25.60;2201.60;;;;;;5032147;28;20024;-71
2022/01/25 10:18:54;;;;;;;50.38;30.38;;;25.60;2201.60;;;;;;5029351;28;20515;-71
2022/01/25 10:21:27;;;;;;;55.22;31.05;;;0.90;2201.60;;;;;;5020246;28;20022;-72
2022/01/25 10:24:14;;;;;;;54.75;29.75;;;25.80;2201.60;;;;;;5029823;28;20022;-72
2022/01/25 10:26:53;;;;;;;55.25;29.80;;;26.20;2201.60;;;;;;5026667;28;20048;-72
2022/01/25 10:29:24;;;;;;;50.50;29.05;;;26.00;2201.60;;;;;;5029041;28;20032;-72
2022/01/25 10:31:53;;;;;;;45.65;28.20;;;26.20;2201.60;;;;;;5029668;28;20018;-72
2022/01/25 10:34:25;;;;;;;55.55;29.73;;;26.00;2201.60;;;;;;5030647;28;20021;-72
2022/01/25 10:36:52;;;;;;;47.13;27.80;;;26.40;2201.60;;;;;;5030513;28;20157;-74
2022/01/25 10:39:26;;;;;;;54.88;32.38;;;26.40;2201.60;;;;;;5030189;28;20651;-72
2022/01/25 10:42:02;;;;;;;47.13;29.40;;;51.20;2227.20;;;;;;5028557;28;20040;-72
2022/01/25 10:44:50;;;;;;;52.63;28.83;;;51.30;2227.20;;;;;;5010699;28;20018;-73
2022/01/25 10:47:16;;;;;;;47.75;27.75;;;26.40;2201.60;;;;;;5029257;28;20021;-74
2022/01/25 10:49:47;;;;;;;53.42;30.33;;;26.50;2201.60;;;;;;5028896;28;20053;-74
2022/01/25 10:52:13;;;;;;;52.80;28.10;;;51.40;2227.20;;;;;;5030718;28;20020;-73
2022/01/25 10:54:40;;;;;;;52.17;30.73;;;51.50;2227.20;;;;;;5031529;28;20025;-74
2022/01/25 10:57:20;;;;;;;45.42;25.73;;;51.20;2227.20;;;;;;5030095;28;20441;-74
2022/01/25 11:00:09;;;;;;;45.70;26.75;;;51.90;2227.20;;;;;;5030991;28;20014;-74
2022/01/25 11:02:56;;;;;;;40.97;26.63;;;51.70;2227.20;;;;;;5057941;28;20112;-74
2022/01/25 11:05:22;;;;;;;43.65;26.05;;;77.10;2150.40;;;;;;5028207;28;20057;-73
2022/01/25 11:07:48;;;;;;;230.57;128.23;;;77.00;2176.00;;;;;;5030196;28;20531;-74
2022/01/25 11:10:20;;;;;;;231.93;120.95;;;51.50;2227.20;;;;;;5030137;28;20028;-75
2022/01/25 11:13:00;;;;;;;65.10;37.90;;;51.60;2227.20;;;;;;5031184;28;20056;-74
2022/01/25 11:15:26;;;;;;;44.38;28.15;;;51.70;2227.20;;;;;;5027551;28;20017;-75
2022/01/25 11:17:52;;;;;;;53.08;27.35;;;51.90;2227.20;;;;;;5030420;28;20036;-75
2022/01/25 11:20:18;;;;;;;47.20;29.08;;;51.50;2227.20;;;;;;5024297;28;20045;-75
2022/01/25 11:22:45;;;;;;;54.97;30.25;;;51.70;2227.20;;;;;;5027961;28;20021;-75
2022/01/25 11:25:17;;;;;;;41.17;25.33;;;51.80;2227.20;;;;;;5027156;28;20116;-75
2022/01/25 11:27:44;;;;;;;34.13;21.63;;;52.00;2176.00;;;;;;5032614;28;20022;-74
2022/01/25 11:30:14;;;;;;;40.85;24.88;;;51.90;2150.40;;;;;;5030065;28;20472;-74
2022/01/25 11:32:44;;;;;;;39.00;22.77;;;52.00;2227.20;;;;;;5034402;28;20072;-73
2022/01/25 11:35:14;;;;;;;39.53;23.60;;;52.10;2227.20;;;;;;5049922;28;20468;-74
2022/01/25 11:37:43;;;;;;;40.33;23.92;;;77.40;2099.20;;;;;;5032614;28;20053;-75
2022/01/25 11:40:30;;;;;;;35.10;23.15;;;102.50;1996.80;;;;;;5030756;28;20029;-74
2022/01/25 11:42:59;;;;;;;36.20;22.65;;;103.20;1920.00;;;;;;5031308;28;20049;-74
2022/01/25 11:45:31;;;;;;;35.50;22.52;;;103.20;1766.40;;;;;;5033484;28;20491;-74
2022/01/25 11:47:57;;;;;;;38.08;23.42;;;102.90;1817.60;;;;;;5033241;28;20029;-75
2022/01/25 11:50:32;;;;;;;38.85;24.10;;;103.30;1740.80;;;;;;5060209;28;20036;-74
2022/01/25 11:53:07;;;;;;;39.17;22.65;;;102.90;1792.00;;;;;;5030428;28;20083;-74
2022/01/25 11:55:42;;;;;;;41.05;25.73;;;102.90;1843.20;;;;;;5033155;28;20045;-73
2022/01/25 11:58:13;;;;;;;43.95;27.08;;;102.70;1868.80;;;;;;5065710;28;20068;-76
2022/01/25 12:00:55;;;;;;;49.40;27.80;;;77.40;1945.60;;;;;;5031358;28;20079;-73
2022/01/25 12:03:35;;;;;;;47.00;26.63;;;77.70;1920.00;;;;;;5032333;28;20025;-73
2022/01/25 12:06:20;;;;;;;52.70;27.73;;;103.00;1868.80;;;;;;5034508;28;20028;-73
2022/01/25 12:09:14;;;;;;;52.55;30.10;;;102.80;1843.20;;;;;;5031583;28;20519;-73
2022/01/25 12:12:07;;;;;;;44.63;30.50;;;102.70;1868.80;;;;;;5034127;28;20514;-74
2022/01/25 12:14:50;;;;;;;56.28;33.20;;;102.70;1894.40;;;;;;5033209;28;20013;-73
2022/01/25 12:17:23;;;;;;;48.85;29.85;;;103.00;1920.00;;;;;;5030713;28;20639;-73
2022/01/25 12:19:57;;;;;;;36.78;24.27;;;102.50;1920.00;;;;;;5033083;28;20378;-73
2022/01/25 12:22:41;;;;;;;49.30;28.08;;;102.40;2022.40;;;;;;5063362;28;20392;-75
2022/01/25 12:25:21;;;;;;;56.28;32.95;;;77.70;2048.00;;;;;;5030158;28;20021;-73
2022/01/25 12:27:57;;;;;;;42.75;28.42;;;102.90;2022.40;;;;;;5033092;28;20029;-74
2022/01/25 12:30:26;;;;;;;;;;;102.90;2022.40;;;;;;5033855;28;20107;-73
2022/01/25 12:33:05;;;;;;;41.67;23.42;;;102.80;1971.20;;;;;;5034994;28;19905;-74
2022/01/25 12:35:47;;;;;;;36.67;24.77;;;102.50;2022.40;;;;;;5033818;28;20029;-76
2022/01/25 12:38:14;;;;;;;36.38;24.30;;;102.50;2073.60;;;;;;5034724;28;20106;-75
2022/01/25 12:40:55;;;;;;;43.88;24.42;;;77.70;2073.60;;;;;;5034711;28;20484;-76
2022/01/25 12:43:23;;;;;;;79.85;42.58;;;77.60;2022.40;;;;;;5029814;28;20440;-75
2022/01/25 12:45:56;;;;;;;67.47;36.42;;;77.40;2227.20;;;;;;5031522;28;20061;-74
2022/01/25 12:48:27;;;;;;;57.38;34.40;;;77.60;2227.20;;;;;;5031182;28;20473;-74
2022/01/25 12:50:56;;;;;;;41.47;25.50;;;102.40;2227.20;;;;;;5031632;28;20018;-73
2022/01/25 12:53:28;;;;;;;45.28;26.83;;;102.50;2201.60;;;;;;5034017;28;20029;-74
2022/01/25 12:55:58;;;;;;;41.63;24.10;;;77.50;2201.60;;;;;;5031436;28;20100;-73
2022/01/25 12:58:27;;;;;;;36.47;20.33;;;77.70;2124.80;;;;;;5033680;28;20025;-73
2022/01/25 13:00:54;;;;;;;36.30;21.05;;;102.40;2022.40;;;;;;5029438;28;20029;-72
2022/01/25 13:03:27;;;;;;;34.30;20.85;;;77.60;1996.80;;;;;;5031769;28;20107;-74
2022/01/25 13:06:09;;;;;;;31.23;19.50;;;77.60;2048.00;;;;;;5032170;28;20092;-72
2022/01/25 13:08:47;;;;;;;35.70;23.17;;;77.50;2048.00;;;;;;5028616;28;20037;-73
2022/01/25 13:11:16;;;;;;;39.03;22.27;;;77.60;2073.60;;;;;;5032070;28;20087;-75
2022/01/25 13:16:52;;;;;;;27.90;18.27;;;77.20;2048.00;;;;;;5033724;28;20029;-75
2022/01/25 13:19:32;;;;;;;43.65;24.17;;;77.20;2150.40;;;;;;5023069;28;20029;-74
2022/01/25 13:22:02;;;;;;;42.50;23.40;;;77.20;2073.60;;;;;;5032075;28;20056;-73
2022/01/25 13:24:32;;;;;;;56.95;30.23;;;77.40;2227.20;;;;;;5028822;28;20427;-75
2022/01/25 13:27:11;;;;;;;46.38;26.27;;;77.20;2227.20;;;;;;5034910;28;20021;-74
2022/01/25 13:32:31;;;;;;;34.53;23.08;;;76.80;2227.20;;;;;;5034661;28;20541;-75
2022/01/25 13:35:25;;;;;;;38.83;24.80;;;52.00;2227.20;;;;;;5030709;28;20427;-72
2022/01/25 13:38:13;;;;;;;40.67;23.33;;;76.80;2227.20;;;;;;5032533;28;20061;-74
2022/01/25 13:46:12;;;;;;;37.35;22.05;;;77.20;2227.20;;;;;;5035125;28;20027;-76
2022/01/25 13:48:39;;;;;;;42.92;25.00;;;52.10;2227.20;;;;;;5032436;28;20025;-74
2022/01/25 13:51:09;;;;;;;36.53;23.08;;;52.10;2227.20;;;;;;5031550;28;20124;-74
2022/01/25 13:53:36;;;;;;;46.08;28.05;;;76.80;2227.20;;;;;;5032662;28;20026;-74
2022/01/25 13:56:04;;;;;;;41.88;23.95;;;52.10;2227.20;;;;;;5031627;28;20017;-73
2022/01/25 13:58:33;;;;;;;40.38;23.67;;;51.90;2227.20;;;;;;5032898;28;20026;-74
2022/01/25 14:01:01;;;;;;;49.55;28.42;;;51.90;2227.20;;;;;;5032403;28;20038;-75
2022/01/25 14:03:33;;;;;;;46.22;25.60;;;51.80;2227.20;;;;;;5030142;28;20436;-74
2022/01/25 14:05:59;;;;;;;49.00;26.98;;;52.10;2227.20;;;;;;5030522;28;20034;-73